Thunder radar more information blitzortung!


Radar de pluja more information rain snow radar


Visita la nostra xarxa de llocs de meteo:

Template documentation
and downloads

And another site



No particular awareness of the weather is required.    There are no Weather-warnings

Pagina Historial Weather Underground text

Diari Resum Marc 26, 2016 Unitats:  Mètric    Imperial   Tant
« Previous Dia
SegĂźent Dia »
Diari Setmana Mensual Anual Personalitzada
  Maxima: Minima: Media:
Temperatura: 20.8 °C 9.8 °C 15.5 °C
Punt de rosada: 11.0 °C 4.6 °C 8 °C
Humitat: 87 % 49 % 63 %
Wind Speed: 22.2 km/h 0.0 km/h 9.3 km/h
RĂ fegues de vent: 22.2 km/h - -
Vent:- - SW
Pression baro: 1022.9 hPa 1016.8 hPa -
Precipitacions: 0.0 mm    
Historical Graphs
 
 
Dades de taula per Marc 26, 2016
Temps Temperatura Punt de rosada Pression baro Vent Wind Speed RĂ fegues de vent Humitat Rainfall Rate (Hourly)
00:00 10.2 °C 7.3 °C 1021.9 hPa NNE 4.2 km/h 4.2 km/h 82 % 0.0 mm
00:10 10.0 °C 7.4 °C 1021.9 hPa Calm     84 % 0.0 mm
00:20 10.0 °C 7.4 °C 1021.9 hPa South 1.6 km/h 1.6 km/h 84 % 0.0 mm
00:30 9.9 °C 7.3 °C 1021.9 hPa SW 1.6 km/h 1.6 km/h 84 % 0.0 mm
00:40 9.9 °C 7.5 °C 1022.9 hPa Calm     85 % 0.0 mm
00:50 9.8 °C 7.2 °C 1022.9 hPa SW 3.2 km/h 4.8 km/h 84 % 0.0 mm
01:00 9.8 °C 7.2 °C 1020.9 hPa SW 3.2 km/h 3.2 km/h 84 % 0.0 mm
01:10 9.8 °C 7.2 °C 1020.9 hPa SW 3.2 km/h 4.8 km/h 84 % 0.0 mm
01:20 9.8 °C 7.4 °C 1020.9 hPa SW 3.2 km/h 4.8 km/h 85 % 0.0 mm
01:30 9.8 °C 7.4 °C 1021.9 hPa SW 4.8 km/h 6.4 km/h 85 % 0.0 mm
01:40 9.9 °C 7.7 °C 1021.9 hPa Calm   4.8 km/h 86 % 0.0 mm
01:50 10.0 °C 7.9 °C 1021.9 hPa Calm   3.2 km/h 87 % 0.0 mm
02:00 10.1 °C 7.9 °C 1021.9 hPa SW 1.6 km/h 3.2 km/h 86 % 0.0 mm
02:10 10.1 °C 7.7 °C 1021.9 hPa SW 1.6 km/h 3.2 km/h 85 % 0.0 mm
02:20 10.2 °C 7.9 °C 1021.9 hPa Calm     86 % 0.0 mm
02:30 10.5 °C 8.3 °C 1021.9 hPa Calm   1.6 km/h 86 % 0.0 mm
02:40 10.8 °C 8.4 °C 1021.9 hPa Calm   1.6 km/h 85 % 0.0 mm
02:50 11.0 °C 8.4 °C 1021.9 hPa Calm   3.2 km/h 84 % 0.0 mm
03:00 11.3 °C 8.5 °C 1021.9 hPa Calm   3.2 km/h 83 % 0.0 mm
03:10 11.5 °C 8.7 °C 1021.9 hPa Calm   4.8 km/h 83 % 0.0 mm
03:20 11.7 °C 8.7 °C 1021.9 hPa SW 4.8 km/h 4.8 km/h 82 % 0.0 mm
03:30 11.9 °C 8.7 °C 1021.9 hPa WSW 3.2 km/h 4.8 km/h 81 % 0.0 mm
03:40 12.1 °C 8.9 °C 1022.9 hPa SW 1.6 km/h 6.4 km/h 81 % 0.0 mm
03:50 12.6 °C 9.2 °C 1022.9 hPa SSW 1.6 km/h 4.8 km/h 80 % 0.0 mm
04:00 12.7 °C 9.2 °C 1021.9 hPa SW 4.8 km/h 6.4 km/h 79 % 0.0 mm
10:09 13.2 °C 9.6 °C 1021.9 hPa SW 7.9 km/h 7.9 km/h 79 % 0.0 mm
10:14 13.6 °C 9.8 °C 1021.9 hPa WSW 7.4 km/h 7.4 km/h 78 % 0.0 mm
10:19 13.8 °C 9.8 °C 1021.9 hPa SW 9.3 km/h 9.3 km/h 77 % 0.0 mm
10:24 14.0 °C 10.1 °C 1021.9 hPa WSW 7.4 km/h 7.4 km/h 77 % 0.0 mm
10:29 14.0 °C 9.6 °C 1021.9 hPa WSW 11.1 km/h 11.1 km/h 75 % 0.0 mm
10:34 13.9 °C 9.3 °C 1021.9 hPa WNW 13.0 km/h 13.0 km/h 74 % 0.0 mm
10:39 14.1 °C 9.6 °C 1021.9 hPa WSW 9.7 km/h 9.7 km/h 74 % 0.0 mm
10:44 14.3 °C 9.5 °C 1021.9 hPa WSW 7.6 km/h 7.6 km/h 73 % 0.0 mm
10:49 14.3 °C 9.5 °C 1021.9 hPa WSW 7.4 km/h 7.4 km/h 73 % 0.0 mm
10:54 14.3 °C 9.5 °C 1021.9 hPa SSW 7.4 km/h 7.4 km/h 73 % 0.0 mm
10:59 14.2 °C 9.2 °C 1021.9 hPa WSW 13.0 km/h 13.0 km/h 72 % 0.0 mm
11:04 14.2 °C 9.0 °C 1021.9 hPa SW 11.1 km/h 11.1 km/h 71 % 0.0 mm
11:09 14.4 °C 9.2 °C 1021.9 hPa SSW 13.0 km/h 13.0 km/h 71 % 0.0 mm
11:14 14.6 °C 9.6 °C 1021.9 hPa SW 9.3 km/h 9.3 km/h 72 % 0.0 mm
11:19 15.0 °C 9.8 °C 1021.9 hPa WSW 11.1 km/h 11.1 km/h 71 % 0.0 mm
11:24 14.9 °C 9.7 °C 1021.9 hPa SSW 7.4 km/h 7.4 km/h 71 % 0.0 mm
11:29 15.3 °C 10.1 °C 1021.9 hPa West 9.3 km/h 9.3 km/h 71 % 0.0 mm
11:34 15.2 °C 9.8 °C 1021.9 hPa SSW 9.5 km/h 9.5 km/h 70 % 0.0 mm
11:39 15.4 °C 9.9 °C 1021.9 hPa SW 7.4 km/h 7.4 km/h 70 % 0.0 mm
11:44 15.9 °C 10.4 °C 1021.9 hPa SSW 9.3 km/h 9.3 km/h 70 % 0.0 mm
11:49 16.3 °C 10.6 °C 1021.9 hPa SW 6.1 km/h 6.1 km/h 69 % 0.0 mm
11:54 15.9 °C 10.2 °C 1020.9 hPa WSW 6.1 km/h 6.1 km/h 69 % 0.0 mm
12:04 16.4 °C 10.3 °C 1020.9 hPa WSW 10.3 km/h 10.3 km/h 67 % 0.0 mm
12:09 16.5 °C 10.3 °C 1021.9 hPa WSW 9.3 km/h 9.3 km/h 67 % 0.0 mm
12:14 16.5 °C 10.3 °C 1021.9 hPa SSW 9.3 km/h 9.3 km/h 67 % 0.0 mm
12:19 16.4 °C 10.3 °C 1021.9 hPa SW 5.6 km/h 5.6 km/h 67 % 0.0 mm
12:24 16.7 °C 10.3 °C 1021.9 hPa WSW 9.7 km/h 9.7 km/h 66 % 0.0 mm
12:34 17.8 °C 10.9 °C 1021.9 hPa SW 9.3 km/h 9.3 km/h 64 % 0.0 mm
12:44 18.2 °C 10.8 °C 1020.9 hPa West 7.4 km/h 7.4 km/h 62 % 0.0 mm
12:49 18.0 °C 10.6 °C 1020.9 hPa SSW 11.1 km/h 11.1 km/h 62 % 0.0 mm
12:54 18.2 °C 10.8 °C 1020.9 hPa ESE 4.7 km/h 4.7 km/h 62 % 0.0 mm
12:59 18.7 °C 11.0 °C 1020.9 hPa WSW 7.4 km/h 7.4 km/h 61 % 0.0 mm
13:04 18.9 °C 10.9 °C 1020.9 hPa South 7.4 km/h 7.4 km/h 60 % 0.0 mm
13:09 18.8 °C 10.6 °C 1020.9 hPa WSW 14.8 km/h 14.8 km/h 59 % 0.0 mm
13:14 18.8 °C 10.6 °C 1020.9 hPa SSW 3.7 km/h 3.9 km/h 59 % 0.0 mm
13:19 18.9 °C 10.4 °C 1020.9 hPa SW 13.0 km/h 13.0 km/h 58 % 0.0 mm
13:24 19.0 °C 10.3 °C 1019.9 hPa SSW 9.3 km/h 9.3 km/h 57 % 0.0 mm
13:34 19.1 °C 10.1 °C 1019.9 hPa SSW 14.8 km/h 14.8 km/h 56 % 0.0 mm
13:44 19.4 °C 10.1 °C 1019.9 hPa SW 14.0 km/h 14.0 km/h 55 % 0.0 mm
13:49 19.5 °C 10.2 °C 1019.9 hPa SW 9.3 km/h 9.3 km/h 55 % 0.0 mm
13:54 19.4 °C 9.8 °C 1018.8 hPa SW 16.7 km/h 16.7 km/h 54 % 0.0 mm
13:59 20.0 °C 10.4 °C 1018.8 hPa WSW 11.1 km/h 11.1 km/h 54 % 0.0 mm
14:09 19.6 °C 9.4 °C 1019.9 hPa SSW 16.7 km/h 16.7 km/h 52 % 0.0 mm
14:14 19.7 °C 9.6 °C 1019.9 hPa SSW 11.1 km/h 11.1 km/h 52 % 0.0 mm
14:19 20.3 °C 10.1 °C 1019.9 hPa SSW 22.2 km/h 22.2 km/h 52 % 0.0 mm
14:24 20.1 °C 9.9 °C 1018.8 hPa SSW 10.3 km/h 10.3 km/h 52 % 0.0 mm
14:29 20.1 °C 9.9 °C 1018.8 hPa WSW 11.1 km/h 11.1 km/h 52 % 0.0 mm
14:34 20.3 °C 9.8 °C 1018.8 hPa SSW 13.0 km/h 13.0 km/h 51 % 0.0 mm
14:44 20.5 °C 10.0 °C 1018.8 hPa SW 16.1 km/h 16.1 km/h 51 % 0.0 mm
14:49 20.1 °C 9.3 °C 1018.8 hPa WSW 20.4 km/h 20.4 km/h 50 % 0.0 mm
14:54 20.2 °C 9.4 °C 1018.8 hPa NW 13.0 km/h 13.0 km/h 50 % 0.0 mm
14:59 20.6 °C 9.8 °C 1018.8 hPa WSW 16.1 km/h 16.1 km/h 50 % 0.0 mm
15:04 20.3 °C 9.6 °C 1018.8 hPa West 9.3 km/h 9.3 km/h 50 % 0.0 mm
15:09 20.5 °C 9.7 °C 1017.8 hPa SW 13.0 km/h 13.0 km/h 50 % 0.0 mm
15:14 20.3 °C 9.2 °C 1017.8 hPa SSW 13.0 km/h 13.0 km/h 49 % 0.0 mm
15:19 20.3 °C 9.2 °C 1017.8 hPa SW 13.0 km/h 13.0 km/h 49 % 0.0 mm
15:24 20.8 °C 9.7 °C 1017.8 hPa WSW 10.0 km/h 10.0 km/h 49 % 0.0 mm
15:29 20.3 °C 9.2 °C 1017.8 hPa SW 16.7 km/h 16.7 km/h 49 % 0.0 mm
15:34 20.2 °C 9.2 °C 1017.8 hPa WSW 16.9 km/h 16.9 km/h 49 % 0.0 mm
15:39 20.0 °C 8.9 °C 1016.8 hPa SSW 18.5 km/h 18.5 km/h 49 % 0.0 mm
15:44 20.2 °C 9.2 °C 1016.8 hPa WSW 13.0 km/h 13.0 km/h 49 % 0.0 mm
15:49 20.0 °C 8.9 °C 1016.8 hPa West 22.2 km/h 22.2 km/h 49 % 0.0 mm
15:54 19.8 °C 8.8 °C 1017.8 hPa SSW 20.4 km/h 20.4 km/h 49 % 0.0 mm
15:59 20.2 °C 9.2 °C 1017.8 hPa West 14.8 km/h 14.8 km/h 49 % 0.0 mm
16:04 20.2 °C 9.2 °C 1017.8 hPa SW 11.1 km/h 11.1 km/h 49 % 0.0 mm
16:09 20.2 °C 9.4 °C 1017.8 hPa South 13.0 km/h 13.0 km/h 50 % 0.0 mm
16:14 20.5 °C 9.7 °C 1017.8 hPa SSW 7.4 km/h 7.4 km/h 50 % 0.0 mm
16:19 20.2 °C 9.2 °C 1017.8 hPa WSW 15.8 km/h 15.8 km/h 49 % 0.0 mm
16:24 20.2 °C 9.2 °C 1017.8 hPa WSW 14.8 km/h 14.8 km/h 49 % 0.0 mm
16:29 20.2 °C 9.2 °C 1017.8 hPa SW 11.1 km/h 11.1 km/h 49 % 0.0 mm
16:34 20.0 °C 8.9 °C 1017.8 hPa SSW 20.4 km/h 20.4 km/h 49 % 0.0 mm
16:39 19.7 °C 8.7 °C 1017.8 hPa SSW 18.5 km/h 18.5 km/h 49 % 0.0 mm
16:44 19.9 °C 8.9 °C 1017.8 hPa West 14.8 km/h 14.8 km/h 49 % 0.0 mm
16:49 19.8 °C 8.8 °C 1017.8 hPa SSW 20.4 km/h 20.4 km/h 49 % 0.0 mm
16:54 19.4 °C 8.4 °C 1016.8 hPa WSW 14.8 km/h 14.8 km/h 49 % 0.0 mm
16:59 19.3 °C 8.3 °C 1016.8 hPa WSW 16.7 km/h 16.7 km/h 49 % 0.0 mm
17:04 19.2 °C 8.5 °C 1016.8 hPa SW 13.7 km/h 13.7 km/h 50 % 0.0 mm
17:14 19.0 °C 8.3 °C 1017.8 hPa WSW 18.5 km/h 18.5 km/h 50 % 0.0 mm
17:19 18.9 °C 8.6 °C 1017.8 hPa SW 14.8 km/h 14.8 km/h 51 % 0.0 mm
17:24 19.1 °C 8.4 °C 1017.8 hPa South 13.0 km/h 13.0 km/h 50 % 0.0 mm
17:29 19.0 °C 8.3 °C 1017.8 hPa SSW 14.8 km/h 14.8 km/h 50 % 0.0 mm
17:34 18.9 °C 8.6 °C 1017.8 hPa SW 9.3 km/h 9.3 km/h 51 % 0.0 mm
17:39 18.6 °C 8.3 °C 1017.8 hPa SSW 16.7 km/h 16.7 km/h 51 % 0.0 mm
17:44 18.3 °C 8.0 °C 1017.8 hPa WSW 16.7 km/h 16.7 km/h 51 % 0.0 mm
17:49 18.2 °C 7.6 °C 1017.8 hPa SW 14.8 km/h 14.8 km/h 50 % 0.0 mm
17:54 18.1 °C 7.8 °C 1017.8 hPa SW 9.7 km/h 9.7 km/h 51 % 0.0 mm
17:59 18.0 °C 7.7 °C 1017.8 hPa SW 16.1 km/h 16.1 km/h 51 % 0.0 mm
18:09 17.5 °C 6.9 °C 1017.8 hPa SW 16.7 km/h 16.7 km/h 50 % 0.0 mm
18:14 17.2 °C 6.9 °C 1017.8 hPa SSE 12.6 km/h 12.6 km/h 51 % 0.0 mm
18:24 16.9 °C 7.0 °C 1016.8 hPa WSW 16.7 km/h 16.7 km/h 52 % 0.0 mm
18:29 16.7 °C 6.8 °C 1016.8 hPa SW 13.7 km/h 13.7 km/h 52 % 0.0 mm
18:34 16.6 °C 7.0 °C 1016.8 hPa SSW 14.8 km/h 14.8 km/h 53 % 0.0 mm
18:39 16.3 °C 6.7 °C 1017.8 hPa SW 7.9 km/h 7.9 km/h 53 % 0.0 mm
18:44 16.2 °C 6.9 °C 1017.8 hPa WSW 9.7 km/h 9.7 km/h 54 % 0.0 mm
18:49 16.1 °C 6.8 °C 1017.8 hPa WSW 13.0 km/h 13.0 km/h 54 % 0.0 mm
18:54 15.9 °C 6.6 °C 1017.8 hPa SW 10.3 km/h 10.3 km/h 54 % 0.0 mm
18:59 15.8 °C 6.5 °C 1017.8 hPa SSW 9.5 km/h 9.5 km/h 54 % 0.0 mm
19:04 15.6 °C 6.3 °C 1017.8 hPa SSE 9.7 km/h 9.7 km/h 54 % 0.0 mm
19:09 15.4 °C 5.9 °C 1017.8 hPa WSW 7.4 km/h 7.4 km/h 53 % 0.0 mm
19:14 15.3 °C 6.1 °C 1017.8 hPa SSW 9.3 km/h 9.3 km/h 54 % 0.0 mm
19:19 15.1 °C 5.6 °C 1017.8 hPa SW 11.1 km/h 11.1 km/h 53 % 0.0 mm
19:24 15.1 °C 5.8 °C 1017.8 hPa WSW 10.0 km/h 10.0 km/h 54 % 0.0 mm
19:29 14.9 °C 5.7 °C 1017.8 hPa WSW 11.1 km/h 11.1 km/h 54 % 0.0 mm
19:34 14.8 °C 5.6 °C 1017.8 hPa SW 12.2 km/h 12.2 km/h 54 % 0.0 mm
19:39 14.6 °C 5.4 °C 1017.8 hPa SSW 11.1 km/h 11.1 km/h 54 % 0.0 mm
19:44 14.4 °C 5.2 °C 1017.8 hPa SSW 9.3 km/h 9.3 km/h 54 % 0.0 mm
19:49 14.4 °C 5.2 °C 1017.8 hPa WSW 11.1 km/h 11.1 km/h 54 % 0.0 mm
19:54 14.3 °C 5.1 °C 1016.8 hPa SW 9.3 km/h 9.3 km/h 54 % 0.0 mm
19:59 14.1 °C 4.9 °C 1016.8 hPa SW 8.7 km/h 8.7 km/h 54 % 0.0 mm
20:04 14.1 °C 4.9 °C 1016.8 hPa SW 9.3 km/h 9.3 km/h 54 % 0.0 mm
20:09 14.0 °C 4.8 °C 1017.8 hPa SSW 11.1 km/h 11.1 km/h 54 % 0.0 mm
20:14 13.9 °C 4.7 °C 1017.8 hPa WSW 5.8 km/h 5.8 km/h 54 % 0.0 mm
20:24 13.7 °C 4.8 °C 1017.8 hPa SW 9.3 km/h 9.3 km/h 55 % 0.0 mm
20:29 13.7 °C 4.8 °C 1017.8 hPa SW 7.4 km/h 7.4 km/h 55 % 0.0 mm
20:34 13.6 °C 4.7 °C 1017.8 hPa WSW 5.6 km/h 5.6 km/h 55 % 0.0 mm
20:39 13.5 °C 4.6 °C 1017.8 hPa WSW 5.6 km/h 5.6 km/h 55 % 0.0 mm
20:44 13.4 °C 4.8 °C 1017.8 hPa SW 7.4 km/h 7.4 km/h 56 % 0.0 mm
20:49 13.4 °C 4.8 °C 1017.8 hPa WSW 7.4 km/h 7.4 km/h 56 % 0.0 mm
20:54 13.4 °C 4.8 °C 1017.8 hPa WSW 13.0 km/h 13.0 km/h 56 % 0.0 mm
20:59 13.4 °C 5.1 °C 1017.8 hPa SW 11.1 km/h 11.1 km/h 57 % 0.0 mm
21:04 13.3 °C 5.2 °C 1017.8 hPa SW 11.1 km/h 11.1 km/h 58 % 0.0 mm
21:09 13.3 °C 5.2 °C 1017.8 hPa SSW 7.4 km/h 7.4 km/h 58 % 0.0 mm
21:14 13.2 °C 5.3 °C 1017.8 hPa SSW 7.4 km/h 7.4 km/h 59 % 0.0 mm
21:19 13.2 °C 5.6 °C 1017.8 hPa WSW 7.4 km/h 7.4 km/h 60 % 0.0 mm
21:24 13.1 °C 5.7 °C 1017.8 hPa West 7.4 km/h 7.4 km/h 61 % 0.0 mm
21:29 13.1 °C 6.0 °C 1017.8 hPa SW 6.9 km/h 6.9 km/h 62 % 0.0 mm
21:34 13.1 °C 6.2 °C 1017.8 hPa WSW 9.3 km/h 9.3 km/h 63 % 0.0 mm
21:39 13.0 °C 6.3 °C 1017.8 hPa West 7.4 km/h 7.4 km/h 64 % 0.0 mm
21:44 12.9 °C 6.2 °C 1017.8 hPa West 3.5 km/h 3.5 km/h 64 % 0.0 mm
21:49 12.9 °C 6.5 °C 1017.8 hPa WSW 7.4 km/h 7.4 km/h 65 % 0.0 mm
21:54 12.9 °C 6.5 °C 1017.8 hPa SW 5.8 km/h 5.8 km/h 65 % 0.0 mm
21:59 12.9 °C 6.9 °C 1017.8 hPa SW 9.3 km/h 9.3 km/h 67 % 0.0 mm
22:04 12.8 °C 6.8 °C 1017.8 hPa SW 7.4 km/h 7.4 km/h 67 % 0.0 mm
22:09 12.8 °C 6.8 °C 1016.8 hPa SW 5.3 km/h 5.3 km/h 67 % 0.0 mm
22:14 12.7 °C 6.7 °C 1016.8 hPa SW 4.7 km/h 4.7 km/h 67 % 0.0 mm
22:19 12.7 °C 6.7 °C 1016.8 hPa WSW 5.3 km/h 5.3 km/h 67 % 0.0 mm
22:24 12.7 °C 6.9 °C 1017.8 hPa WSW 7.4 km/h 7.4 km/h 68 % 0.0 mm
22:29 12.6 °C 6.8 °C 1017.8 hPa WSW 5.6 km/h 5.6 km/h 68 % 0.0 mm
22:34 12.6 °C 6.8 °C 1017.8 hPa SW 5.6 km/h 5.6 km/h 68 % 0.0 mm
22:39 12.5 °C 6.8 °C 1017.8 hPa West 4.7 km/h 4.7 km/h 68 % 0.0 mm
22:44 12.5 °C 6.9 °C 1017.8 hPa WSW 3.7 km/h 3.7 km/h 69 % 0.0 mm
22:49 12.5 °C 6.9 °C 1017.8 hPa WSW 6.1 km/h 6.1 km/h 69 % 0.0 mm
22:54 12.5 °C 6.9 °C 1017.8 hPa SW 5.6 km/h 5.6 km/h 69 % 0.0 mm
22:59 12.4 °C 6.9 °C 1017.8 hPa WSW 3.7 km/h   69 % 0.0 mm
23:04 12.4 °C 6.9 °C 1017.8 hPa WSW 3.5 km/h 3.5 km/h 69 % 0.0 mm
23:09 12.3 °C 6.8 °C 1017.8 hPa West 7.4 km/h 7.4 km/h 69 % 0.0 mm
23:14 12.2 °C 6.9 °C 1017.8 hPa WNW 3.7 km/h 3.7 km/h 70 % 0.0 mm
23:19 12.1 °C 6.8 °C 1017.8 hPa SSW 1.9 km/h 1.9 km/h 70 % 0.0 mm
23:24 12.1 °C 6.8 °C 1017.8 hPa NNW 7.4 km/h 7.4 km/h 70 % 0.0 mm
23:29 12.1 °C 6.8 °C 1017.8 hPa WNW 3.7 km/h 3.7 km/h 70 % 0.0 mm
23:34 12.1 °C 6.8 °C 1017.8 hPa NW 3.7 km/h 3.7 km/h 70 % 0.0 mm
23:39 12.2 °C 6.9 °C 1017.8 hPa WSW 5.6 km/h 5.6 km/h 70 % 0.0 mm
Meteo Sesrovires
Elogis d' Weather Underground - 3.5 mb

Guio original per  Jim McMurry - jmcmurry@mwt.net Adaptat per a la plantilla per  Wim van der Kuil - Leuven-Template.eu

Trobareu la nostra informacio del temps tambe a:

Weather Underground

AWEKAS